Friday, April 20, 2018, 6:21 AM EDT
Back to Local

KIPT, Williamsport-lycoming County

Location: Montoursville, PA, United States Lat: 41.25
Local Time: 6:21 AM EDT (10:21 GMT) Lon: -76.917
Time Zone: US/Eastern Elev: 528 ft

Show me the last for .
Show Decoded

2018-04-20 05:54 METAR KIPT 200954Z AUTO 27008KT 10SM OVC040 01/M04 A3020 RMK AO2 SLP231
                 T00061039 =
2018-04-20 04:54 METAR KIPT 200854Z AUTO 27008KT 10SM OVC042 01/M04 A3017 RMK AO2 SLP222
                 T00111044 53015 =
2018-04-20 03:54 METAR KIPT 200754Z AUTO 28008KT 10SM FEW050 OVC060 01/M04 A3016 RMK AO2 SLP216
                 T00111044 =
2018-04-20 02:54 METAR KIPT 200654Z AUTO 29007KT 10SM OVC065 01/M04 A3014 RMK AO2 SLP212
                 T00111044 =
2018-04-20 01:54 METAR KIPT 200554Z AUTO 30011KT 10SM OVC065 01/M05 A3013 RMK AO2 SLP206 60001
                 T00111050 10039 20006 51009 =
2018-04-20 00:54 METAR KIPT 200454Z AUTO 29007KT 10SM SCT065 01/M03 A3013 RMK AO2 SNE14 SLP206
                 P0000 T00061033 400720006 =
2018-04-19 23:54 METAR KIPT 200354Z AUTO 30010KT 6SM -SN BKN036 OVC047 01/M02 A3012 RMK AO2 WSHFT
                 0324 SNB03 SLP204 P0001 T00111017 =
2018-04-19 23:44 METAR KIPT 200344Z AUTO 27010G18KT 4SM -SN BR OVC034 01/M01 A3012 RMK AO2 WSHFT
                 0324 SNB03 P0001 T00111011
2018-04-19 23:36 METAR KIPT 200336Z AUTO 27010KT 3SM -SN OVC028 01/M02 A3011 RMK AO2 SNB03 P0000
                 T00111017 =
2018-04-19 23:27 METAR KIPT 200327Z AUTO 30011G20KT 1 3/4SM -SN BKN026 OVC040 01/M02 A3011 RMK
                 AO2 SNB03 P0000 T00111017 =
2018-04-19 23:19 METAR KIPT 200319Z AUTO 32014G20KT 1 3/4SM -SN BKN030 OVC042 01/M02 A3011 RMK
                 AO2 SNB03 P0000 T00111017 =
2018-04-19 22:54 METAR KIPT 200254Z AUTO 36009KT 10SM BKN045 BKN050 OVC075 02/M02 A3010 RMK AO2
                 SNB0157E10 SLP198 P0000 60000 T00221022 51024 =
2018-04-19 21:54 METAR KIPT 200154Z 35014G19KT 10SM BKN042 BKN049 OVC075 03/M04 A3009 RMK AO2
                 SLP194 T00331039 =
2018-04-19 20:54 METAR KIPT 200054Z 27011KT 10SM OVC070 03/M04 A3006 RMK AO2 SLP184 T00331039 =
2018-04-19 19:54 METAR KIPT 192354Z 28012KT 10SM FEW044 OVC060 04/M04 A3003 RMK AO2 SLP172 60000
                 T00391044 10072 20039 53022 =
2018-04-19 18:54 METAR KIPT 192254Z 31012G20KT 10SM OVC055 04/M05 A3000 RMK AO2 SLP163 T00441050
                 =
2018-04-19 17:54 METAR KIPT 192154Z 30013KT 270V340 9SM OVC055 04/M05 A2998 RMK AO2 SNE49 SLP157
                 P0000 T00441050 =
2018-04-19 16:54 METAR KIPT 192054Z 29017G27KT 10SM -SN OVC043 04/M04 A2996 RMK AO2 PK WND
                 28027/2048 RAB37E40SNB51 PRESRR SLP150 PCPN VRY LGT P0000 60000 T00391044 53037
                 =
2018-04-19 15:54 METAR KIPT 191954Z 32018G22KT 10SM BKN047 OVC065 06/M03 A2989 RMK AO2 PK WND
                 28027/1900 SNE1856 SLP126 P0000 T00611033 =
2018-04-19 14:54 METAR KIPT 191854Z 28017G24KT 9SM -SN SCT041 BKN049 OVC060 07/M02 A2986 RMK AO2
                 RAB03E12SNB49 SLP116 PCPN VRY LGT P0000 T00671022 =
2018-04-19 13:54 METAR KIPT 191754Z 32012G21KT 10SM BKN036 BKN048 OVC060 06/M01 A2985 RMK AO2
                 RAB01E13 SLP111 P0000 60003 T00611006 10072 20022 53020 =
2018-04-19 13:01 METAR KIPT 191701Z 30015G21KT 10SM -RA SCT020 BKN033 OVC049 05/01 A2984 RMK AO2
                 RAB01 P0000 T00500011 =
2018-04-19 12:54 METAR KIPT 191654Z 29014G18KT 10SM BKN014 BKN024 OVC036 04/01 A2983 RMK AO2
                 RAE08B25E49 SLP106 P0001 T00440006 =
2018-04-19 11:54 METAR KIPT 191554Z 30007KT 10SM -RA BKN013 BKN022 OVC030 04/01 A2981 RMK AO2
                 SLP097 P0000 T00440011 =
2018-04-19 10:54 METAR KIPT 191454Z 27008KT 10SM -RA BKN011 BKN026 OVC040 03/01 A2979 RMK AO2
                 RAE1355B34UPB1355E1357 SLP091 P0001 60002 T00330011 53012 =
2018-04-19 09:54 METAR KIPT 191354Z 26005KT 7SM -RA BKN009 BKN018 OVC035 03/01 A2976 RMK AO2
                 SLP080 P0001 T00280011 =
2018-04-19 09:47 METAR KIPT 191347Z 27003KT 5SM -RA BR BKN009 BKN018 OVC035 03/01 A2975 RMK AO2
                 P0001 T00280011 =
2018-04-19 09:35 METAR KIPT 191335Z 34004KT 5SM -RA BR FEW009 BKN018 OVC035 03/01 A2975 RMK AO2
                 P0001 T00280011 =
2018-04-19 09:26 METAR KIPT 191326Z 28003KT 5SM -RA BR BKN012 OVC018 03/01 A2976 RMK AO2 P0001
                 T00280011 =
2018-04-19 08:54 METAR KIPT 191254Z 33004KT 7SM -RA SCT008 BKN020 OVC025 03/01 A2976 RMK AO2
                 UPB31E52RAB52 SLP080 P0000 T00280011 =
2018-04-19 08:52 METAR KIPT 191252Z 32004KT 6SM -RA BR SCT008 OVC023 03/01 A2976 RMK AO2
                 UPB31E52RAB52 P0000 =
2018-04-19 08:38 METAR KIPT 191238Z 32003KT 2SM UP BR BKN008 OVC012 03/01 A2976 RMK AO2 UPB31 CIG
                 006V011 P0000 T00280011 =
2018-04-19 08:28 METAR KIPT 191228Z 00000KT 3SM BR BKN008 OVC012 03/01 A2975 RMK AO2 T00280011 =
2018-04-19 07:54 METAR KIPT 191154Z 25003KT 4SM BR OVC014 03/01 A2973 RMK AO2 SLP071 60005 70006
                 T00280006 10056 20028 53009 =
2018-04-19 06:54 METAR KIPT 191054Z 00000KT 10SM OVC026 03/01 A2971 RMK AO2 SLP063 T00280006 =

Support USWX by starting your Amazon purchase here.